createdAt,value
2018-09-06T00:00:11.821Z,40.10
2018-09-06T00:00:45.883Z,37.93
2018-09-06T00:01:20.080Z,37.50
2018-09-06T00:01:54.165Z,37.60
2018-09-06T00:02:28.146Z,39.20
2018-09-06T00:03:03.686Z,38.23
2018-09-06T00:03:39.633Z,41.17
2018-09-06T00:04:13.723Z,38.77
2018-09-06T00:04:47.652Z,39.80
2018-09-06T00:05:21.734Z,40.63
2018-09-06T00:06:10.991Z,38.87
2018-09-06T00:06:45.083Z,39.20
2018-09-06T00:07:19.818Z,38.30
2018-09-06T00:07:54.050Z,39.77
2018-09-06T00:08:28.030Z,39.97
2018-09-06T00:09:02.972Z,39.50
2018-09-06T00:09:37.071Z,40.27
2018-09-06T00:10:11.000Z,39.60
2018-09-06T00:10:44.963Z,40.80
2018-09-06T00:11:19.205Z,40.43
2018-09-06T00:11:53.606Z,39.95
2018-09-06T00:12:27.555Z,41.00
2018-09-06T00:13:01.326Z,40.40
2018-09-06T00:13:35.294Z,40.93
2018-09-06T00:14:09.301Z,39.33
2018-09-06T00:14:44.274Z,39.77
2018-09-06T00:15:18.650Z,40.70
2018-09-06T00:15:52.523Z,38.53
2018-09-06T00:16:26.356Z,40.13
2018-09-06T00:17:00.534Z,39.90
2018-09-06T00:17:34.308Z,39.93
2018-09-06T00:18:08.197Z,40.77
2018-09-06T00:18:42.188Z,39.03
2018-09-06T00:19:16.081Z,41.00
2018-09-06T00:19:50.245Z,42.67
2018-09-06T00:20:24.150Z,42.17
2018-09-06T00:20:58.279Z,38.23
2018-09-06T00:21:32.173Z,38.10
2018-09-06T00:22:08.056Z,42.37
2018-09-06T00:22:43.812Z,40.67
2018-09-06T00:23:17.964Z,38.93
2018-09-06T00:23:51.811Z,39.90
2018-09-06T00:24:25.800Z,40.23
2018-09-06T00:24:59.763Z,39.23
2018-09-06T00:25:34.184Z,41.63
2018-09-06T00:26:12.374Z,39.67
2018-09-06T00:26:46.362Z,39.53
2018-09-06T00:27:20.904Z,39.00
2018-09-06T00:27:55.457Z,40.33
2018-09-06T00:28:29.426Z,39.33
2018-09-06T00:29:03.529Z,40.30
2018-09-06T00:29:37.401Z,40.70
2018-09-06T00:30:11.275Z,40.90
2018-09-06T00:30:45.178Z,39.13
2018-09-06T00:31:19.243Z,37.43
2018-09-06T00:31:53.571Z,39.40
2018-09-06T00:32:27.540Z,38.80
2018-09-06T00:33:01.409Z,40.40
2018-09-06T00:33:35.390Z,40.60
2018-09-06T00:34:09.151Z,39.30
2018-09-06T00:34:42.940Z,37.73
2018-09-06T00:35:16.872Z,38.57
2018-09-06T00:35:50.843Z,37.60
2018-09-06T00:36:24.798Z,39.63
2018-09-06T00:36:58.723Z,39.38
2018-09-06T00:37:32.735Z,38.90
2018-09-06T00:38:06.548Z,38.80
2018-09-06T00:38:40.412Z,37.77
2018-09-06T00:39:14.193Z,37.40
2018-09-06T00:39:47.996Z,39.67
2018-09-06T00:40:21.955Z,38.83
2018-09-06T00:40:56.128Z,39.37
2018-09-06T00:41:29.970Z,37.63
2018-09-06T00:42:03.905Z,38.33
2018-09-06T00:42:38.054Z,38.20
2018-09-06T00:43:11.877Z,38.73
2018-09-06T00:43:45.807Z,40.03
2018-09-06T00:44:20.463Z,38.50
2018-09-06T00:44:54.314Z,37.73
2018-09-06T00:45:28.219Z,37.53
2018-09-06T00:46:03.015Z,38.13
2018-09-06T00:46:37.253Z,38.10
2018-09-06T00:47:11.171Z,38.13
2018-09-06T00:47:45.126Z,37.90
2018-09-06T00:48:18.913Z,36.53
2018-09-06T00:48:52.833Z,36.90
2018-09-06T00:49:26.728Z,37.07
2018-09-06T00:50:00.883Z,35.60
2018-09-06T00:50:37.461Z,34.97
2018-09-06T00:51:11.274Z,35.47
2018-09-06T00:51:45.018Z,36.97
2018-09-06T00:52:18.982Z,35.92
2018-09-06T00:52:53.080Z,33.53
2018-09-06T00:53:27.200Z,33.20
2018-09-06T00:54:01.309Z,32.67
2018-09-06T00:54:35.233Z,31.30
2018-09-06T00:55:09.163Z,33.37
2018-09-06T00:55:42.920Z,31.90
2018-09-06T00:56:16.875Z,33.33
2018-09-06T00:56:51.040Z,32.77
2018-09-06T00:57:25.096Z,32.77
2018-09-06T00:57:58.886Z,32.23
2018-09-06T00:58:32.927Z,31.30
2018-09-06T00:59:06.702Z,31.67
2018-09-06T00:59:40.595Z,30.73
2018-09-06T01:00:14.533Z,31.90
2018-09-06T01:00:48.342Z,30.50
2018-09-06T01:01:22.726Z,31.73
2018-09-06T01:01:56.810Z,31.43
2018-09-06T01:02:30.678Z,32.23
2018-09-06T01:03:04.604Z,31.27
2018-09-06T01:03:38.641Z,32.57
2018-09-06T01:04:12.548Z,31.47
2018-09-06T01:04:46.487Z,31.83
2018-09-06T01:05:20.301Z,31.50
2018-09-06T01:05:54.238Z,31.30
2018-09-06T01:06:28.067Z,31.03
2018-09-06T01:07:02.005Z,30.67
2018-09-06T01:07:35.899Z,30.33
2018-09-06T01:08:09.675Z,29.93
2018-09-06T01:08:43.576Z,29.97
2018-09-06T01:09:17.409Z,31.80
2018-09-06T01:09:51.144Z,31.43
2018-09-06T01:10:25.037Z,30.13
2018-09-06T01:10:59.016Z,30.10
2018-09-06T01:11:32.931Z,30.30
2018-09-06T01:12:06.913Z,31.77
2018-09-06T01:12:41.683Z,29.83
2018-09-06T01:13:15.599Z,30.70
2018-09-06T01:13:49.647Z,30.40
2018-09-06T01:14:23.818Z,29.37
2018-09-06T01:14:57.775Z,31.03
2018-09-06T01:15:31.682Z,31.07
2018-09-06T01:16:05.812Z,30.47
2018-09-06T01:16:39.749Z,30.23
2018-09-06T01:17:13.646Z,30.73
2018-09-06T01:17:47.444Z,30.03
2018-09-06T01:18:21.374Z,30.47
2018-09-06T01:18:55.350Z,31.30
2018-09-06T01:19:29.508Z,30.70
2018-09-06T01:20:03.531Z,32.10
2018-09-06T01:20:37.627Z,30.53
2018-09-06T01:21:11.564Z,29.45
2018-09-06T01:21:45.885Z,29.40
2018-09-06T01:22:19.786Z,30.90
2018-09-06T01:22:53.596Z,29.20
2018-09-06T01:23:27.560Z,29.17
2018-09-06T01:24:01.423Z,29.17
2018-09-06T01:24:35.195Z,29.20
2018-09-06T01:25:09.134Z,28.77
2018-09-06T01:25:47.033Z,29.37
2018-09-06T01:26:20.804Z,27.83
2018-09-06T01:26:54.721Z,27.10
2018-09-06T01:27:28.612Z,27.47
2018-09-06T01:28:02.569Z,29.43
2018-09-06T01:28:36.222Z,28.83
2018-09-06T01:29:10.247Z,28.50
2018-09-06T01:29:44.130Z,27.70
2018-09-06T01:30:17.901Z,25.53
2018-09-06T01:30:51.778Z,27.93
2018-09-06T01:31:25.595Z,26.63
2018-09-06T01:32:00.106Z,27.87
2018-09-06T01:32:34.128Z,27.90
2018-09-06T01:33:07.889Z,27.20
2018-09-06T01:33:41.817Z,28.07
2018-09-06T01:34:15.630Z,27.43
2018-09-06T01:34:49.913Z,27.83
2018-09-06T01:35:23.735Z,26.10
2018-09-06T01:36:03.235Z,26.37
2018-09-06T01:36:42.787Z,26.57
2018-09-06T01:37:16.535Z,26.03
2018-09-06T01:37:50.397Z,25.23
2018-09-06T01:38:24.298Z,25.67
2018-09-06T01:38:58.377Z,24.83
2018-09-06T01:39:32.497Z,25.80
2018-09-06T01:40:06.445Z,25.30
2018-09-06T01:40:40.316Z,26.60
2018-09-06T01:41:14.363Z,26.00
2018-09-06T01:41:48.088Z,26.87
2018-09-06T01:42:21.878Z,24.57
2018-09-06T01:42:55.719Z,25.57
2018-09-06T01:43:29.716Z,26.37
2018-09-06T01:44:04.379Z,25.03
2018-09-06T01:44:38.543Z,24.02
2018-09-06T01:45:12.280Z,22.63
2018-09-06T01:45:46.031Z,23.80
2018-09-06T01:46:19.978Z,23.83
2018-09-06T01:46:54.918Z,24.47
2018-09-06T01:47:28.835Z,23.40
2018-09-06T01:48:02.705Z,24.17
2018-09-06T01:48:36.666Z,24.57
2018-09-06T01:49:10.634Z,23.57
2018-09-06T01:49:44.846Z,23.77
2018-09-06T01:50:18.704Z,24.10
2018-09-06T01:50:52.510Z,24.43
2018-09-06T01:51:28.092Z,23.87
2018-09-06T01:52:02.631Z,24.37
2018-09-06T01:52:36.711Z,23.87
2018-09-06T01:53:10.662Z,23.63
2018-09-06T01:53:44.457Z,23.07
2018-09-06T01:54:18.292Z,24.17
2018-09-06T01:54:52.131Z,22.93
2018-09-06T01:55:26.021Z,24.23
2018-09-06T01:55:59.949Z,25.10
2018-09-06T01:56:33.741Z,24.13
2018-09-06T01:57:07.746Z,24.63
2018-09-06T01:57:41.632Z,26.60
2018-09-06T01:58:15.358Z,23.40
2018-09-06T01:58:48.996Z,26.47
2018-09-06T01:59:22.769Z,25.57
2018-09-06T01:59:56.498Z,26.17
2018-09-06T02:00:30.368Z,27.03
2018-09-06T02:01:04.265Z,27.50
2018-09-06T02:01:38.392Z,27.53
2018-09-06T02:02:12.271Z,26.67
2018-09-06T02:02:46.219Z,29.07
2018-09-06T02:03:20.318Z,29.73
2018-09-06T02:03:54.801Z,27.47
2018-09-06T02:04:28.650Z,27.50
2018-09-06T02:05:03.798Z,27.47
2018-09-06T02:05:38.026Z,27.07
2018-09-06T02:06:12.006Z,29.03
2018-09-06T02:06:45.940Z,28.90
2018-09-06T02:07:20.067Z,30.60
2018-09-06T02:07:54.160Z,28.67
2018-09-06T02:08:28.091Z,31.27
2018-09-06T02:09:02.435Z,30.40
2018-09-06T02:09:36.544Z,31.30
2018-09-06T02:10:10.586Z,29.80
2018-09-06T02:10:44.499Z,31.97
2018-09-06T02:11:18.453Z,31.43
2018-09-06T02:11:52.313Z,34.33
2018-09-06T02:12:26.272Z,32.67
2018-09-06T02:13:00.144Z,33.90
2018-09-06T02:13:34.133Z,32.87
2018-09-06T02:14:08.186Z,34.37
2018-09-06T02:14:42.017Z,31.80
2018-09-06T02:15:15.769Z,31.03
2018-09-06T02:15:49.662Z,32.87
2018-09-06T02:16:23.540Z,31.87
2018-09-06T02:16:57.290Z,32.43
2018-09-06T02:17:31.250Z,34.17
2018-09-06T02:18:05.483Z,33.80
2018-09-06T02:18:39.224Z,35.00
2018-09-06T02:19:13.325Z,33.53
2018-09-06T02:19:47.129Z,35.57
2018-09-06T02:20:20.908Z,36.53
2018-09-06T02:20:54.635Z,36.93
2018-09-06T02:21:28.592Z,34.33
2018-09-06T02:22:02.307Z,35.23
2018-09-06T02:22:36.344Z,37.70
2018-09-06T02:23:10.624Z,35.90
2018-09-06T02:23:44.516Z,35.90
2018-09-06T02:24:18.455Z,36.10
2018-09-06T02:24:52.309Z,35.37
2018-09-06T02:25:26.203Z,39.67
2018-09-06T02:25:59.900Z,38.20
2018-09-06T02:26:33.768Z,39.03
2018-09-06T02:27:07.836Z,39.73
2018-09-06T02:27:41.964Z,40.03
2018-09-06T02:28:15.832Z,41.80
2018-09-06T02:28:49.787Z,37.27
2018-09-06T02:29:23.748Z,39.80
2018-09-06T02:29:57.608Z,37.90
2018-09-06T02:30:31.515Z,38.80
2018-09-06T02:31:05.317Z,39.40
2018-09-06T02:31:39.221Z,36.70
2018-09-06T02:32:13.286Z,37.27
2018-09-06T02:32:47.052Z,39.60
2018-09-06T02:33:21.151Z,39.03
2018-09-06T02:33:54.915Z,37.27
2018-09-06T02:34:28.747Z,40.87
2018-09-06T02:35:02.507Z,37.20
2018-09-06T02:35:36.601Z,38.67
2018-09-06T02:36:10.768Z,43.97
2018-09-06T02:36:44.766Z,45.83
2018-09-06T02:37:18.819Z,44.57
2018-09-06T02:37:52.731Z,46.80
2018-09-06T02:38:26.434Z,48.40
2018-09-06T02:39:00.411Z,47.30
2018-09-06T02:39:34.313Z,47.10
2018-09-06T02:40:11.130Z,45.13
2018-09-06T02:40:45.136Z,43.50
2018-09-06T02:41:19.497Z,42.23
2018-09-06T02:41:53.511Z,41.73
2018-09-06T02:42:27.288Z,42.03
2018-09-06T02:43:01.198Z,42.87
2018-09-06T02:43:34.872Z,41.83
2018-09-06T02:44:09.228Z,42.10
2018-09-06T02:44:43.210Z,40.33
2018-09-06T02:45:17.111Z,38.70
2018-09-06T02:45:51.050Z,39.80
2018-09-06T02:46:24.962Z,40.00
2018-09-06T02:46:58.746Z,43.30
2018-09-06T02:47:32.624Z,42.03
2018-09-06T02:48:06.406Z,40.50
2018-09-06T02:48:41.571Z,39.83
2018-09-06T02:49:17.737Z,40.87
2018-09-06T02:49:57.380Z,40.53
2018-09-06T02:50:37.003Z,42.20
2018-09-06T02:51:14.535Z,43.03
2018-09-06T02:51:48.384Z,43.60
2018-09-06T02:52:22.480Z,43.37
2018-09-06T02:52:56.642Z,43.03
2018-09-06T02:53:31.692Z,41.43
2018-09-06T02:54:05.672Z,42.80
2018-09-06T02:54:39.568Z,43.43
2018-09-06T02:55:13.539Z,42.80
2018-09-06T02:55:47.564Z,43.73
2018-09-06T02:56:21.418Z,41.43
2018-09-06T02:56:55.219Z,41.30
2018-09-06T02:57:29.210Z,41.27
2018-09-06T02:58:03.064Z,44.43
2018-09-06T02:58:37.222Z,45.87
2018-09-06T02:59:11.611Z,44.13
2018-09-06T02:59:46.626Z,47.43
2018-09-06T03:00:26.116Z,49.10
2018-09-06T03:00:59.889Z,50.37
2018-09-06T03:01:33.909Z,54.90
2018-09-06T03:02:07.896Z,52.77
2018-09-06T03:02:41.784Z,48.33
2018-09-06T03:03:16.002Z,51.67
2018-09-06T03:03:49.998Z,48.37
2018-09-06T03:04:23.746Z,46.27
2018-09-06T03:04:57.669Z,48.00
2018-09-06T03:05:31.919Z,54.13
2018-09-06T03:06:06.275Z,53.23
2018-09-06T03:06:40.033Z,54.03
2018-09-06T03:07:14.085Z,47.30
2018-09-06T03:07:48.785Z,53.87
2018-09-06T03:08:23.684Z,55.43
2018-09-06T03:08:57.684Z,57.40
2018-09-06T03:09:31.563Z,62.67
2018-09-06T03:10:05.461Z,59.67
2018-09-06T03:10:42.272Z,58.93
2018-09-06T03:11:19.478Z,59.27
2018-09-06T03:12:56.661Z,58.00
2018-09-06T03:13:30.707Z,48.63
2018-09-06T03:14:04.593Z,60.60
2018-09-06T03:14:38.459Z,50.80
2018-09-06T03:15:12.609Z,51.27
2018-09-06T03:15:46.787Z,59.17
2018-09-06T03:16:20.881Z,53.53
2018-09-06T03:16:54.755Z,52.43
2018-09-06T03:17:28.573Z,52.37
2018-09-06T03:18:02.693Z,49.27
2018-09-06T03:18:36.509Z,55.53
2018-09-06T03:19:10.624Z,57.77
2018-09-06T03:19:44.482Z,60.37
2018-09-06T03:20:18.451Z,51.43
2018-09-06T03:20:52.229Z,52.40
2018-09-06T03:21:26.037Z,48.57
2018-09-06T03:22:00.000Z,49.27
2018-09-06T03:22:34.232Z,48.37
2018-09-06T03:23:08.168Z,49.10
2018-09-06T03:23:41.984Z,48.63
2018-09-06T03:24:16.425Z,51.27
2018-09-06T03:24:50.442Z,47.60
2018-09-06T03:25:24.248Z,44.77
2018-09-06T03:25:58.011Z,48.43
2018-09-06T03:26:31.778Z,54.20
2018-09-06T03:27:05.481Z,51.33
2018-09-06T03:27:39.479Z,60.27
2018-09-06T03:28:13.650Z,51.57
2018-09-06T03:28:49.028Z,51.57
2018-09-06T03:29:23.127Z,52.60
2018-09-06T03:29:57.152Z,53.03
2018-09-06T03:30:31.028Z,50.60
2018-09-06T03:31:05.013Z,50.77
2018-09-06T03:31:39.007Z,50.30
2018-09-06T03:32:12.874Z,48.80
2018-09-06T03:32:46.919Z,50.40
2018-09-06T03:33:21.068Z,51.70
2018-09-06T03:33:55.215Z,48.57
2018-09-06T03:34:28.850Z,49.37
2018-09-06T03:35:02.789Z,53.60
2018-09-06T03:35:36.547Z,50.33
2018-09-06T03:36:10.742Z,50.50
2018-09-06T03:36:44.471Z,57.50
2018-09-06T03:37:18.592Z,56.07
2018-09-06T03:37:52.568Z,59.67
2018-09-06T03:38:26.422Z,63.40
2018-09-06T03:39:00.360Z,61.47
2018-09-06T03:39:34.187Z,58.53
2018-09-06T03:40:08.029Z,50.80
2018-09-06T03:40:41.766Z,60.27
2018-09-06T03:41:15.657Z,61.17
2018-09-06T03:41:49.841Z,55.07
2018-09-06T03:42:23.885Z,56.10
2018-09-06T03:42:57.733Z,66.43
2018-09-06T03:43:31.558Z,57.30
2018-09-06T03:44:05.446Z,56.53
2018-09-06T03:44:39.266Z,62.40
2018-09-06T03:45:13.120Z,61.60
2018-09-06T03:45:46.940Z,66.17
2018-09-06T03:46:20.876Z,59.40
2018-09-06T03:46:54.947Z,56.90
2018-09-06T03:47:28.750Z,59.10
2018-09-06T03:48:02.489Z,58.27
2018-09-06T03:48:36.426Z,55.53
2018-09-06T03:49:10.135Z,53.10
2018-09-06T03:49:43.928Z,53.33
2018-09-06T03:50:17.917Z,52.27
2018-09-06T03:50:51.844Z,51.80
2018-09-06T03:51:25.714Z,52.57
2018-09-06T03:51:59.698Z,53.80
2018-09-06T03:52:33.469Z,59.03
2018-09-06T03:53:07.205Z,61.73
2018-09-06T03:53:40.971Z,56.47
2018-09-06T03:54:14.781Z,63.87
2018-09-06T03:54:48.706Z,59.93
2018-09-06T03:55:22.891Z,56.80
2018-09-06T03:55:56.923Z,57.80
2018-09-06T03:56:30.637Z,56.67
2018-09-06T03:57:05.271Z,59.10
2018-09-06T03:57:39.208Z,67.07
2018-09-06T03:58:13.137Z,62.23
2018-09-06T03:58:46.743Z,57.07
2018-09-06T03:59:20.751Z,61.53
2018-09-06T03:59:54.770Z,59.43
2018-09-06T04:00:28.605Z,55.30
2018-09-06T04:01:02.282Z,54.57
2018-09-06T04:01:36.243Z,51.43
2018-09-06T04:02:09.996Z,50.83
2018-09-06T04:02:43.815Z,51.80
2018-09-06T04:03:17.504Z,50.27
2018-09-06T04:03:51.566Z,52.17
2018-09-06T04:04:25.694Z,53.60
2018-09-06T04:04:59.858Z,49.57
2018-09-06T04:05:33.537Z,50.53
2018-09-06T04:06:07.542Z,47.70
2018-09-06T04:06:41.318Z,48.17
2018-09-06T04:07:15.246Z,48.67
2018-09-06T04:07:49.884Z,53.07
2018-09-06T04:08:23.951Z,58.00
2018-09-06T04:08:57.908Z,53.63
2018-09-06T04:09:32.050Z,52.50
2018-09-06T04:10:05.870Z,52.20
2018-09-06T04:10:39.756Z,52.57
2018-09-06T04:11:13.867Z,57.63
2018-09-06T04:11:47.649Z,54.03
2018-09-06T04:12:22.380Z,51.37
2018-09-06T04:12:57.042Z,53.13
2018-09-06T04:13:31.499Z,51.60
2018-09-06T04:14:05.512Z,51.77
2018-09-06T04:14:39.411Z,53.30
2018-09-06T04:15:13.256Z,52.37
2018-09-06T04:15:47.057Z,52.60
2018-09-06T04:16:20.817Z,53.60
2018-09-06T04:16:54.767Z,57.57
2018-09-06T04:17:29.162Z,52.13
2018-09-06T04:18:02.999Z,51.60
2018-09-06T04:18:37.080Z,55.00
2018-09-06T04:19:10.863Z,54.17
2018-09-06T04:19:44.552Z,54.50
2018-09-06T04:20:18.375Z,51.33
2018-09-06T04:20:52.341Z,61.00
2018-09-06T04:21:26.548Z,65.50
2018-09-06T04:22:03.810Z,72.30
2018-09-06T04:22:45.695Z,73.47
2018-09-06T04:23:20.451Z,58.40
2018-09-06T04:23:54.610Z,66.10
2018-09-06T04:24:28.611Z,71.53
2018-09-06T04:25:02.607Z,74.57
2018-09-06T04:25:37.485Z,62.93
2018-09-06T04:26:11.454Z,56.33
2018-09-06T04:26:45.293Z,53.17
2018-09-06T04:27:19.166Z,64.67
2018-09-06T04:27:53.083Z,63.80
2018-09-06T04:28:28.122Z,66.43
2018-09-06T04:29:02.138Z,69.53
2018-09-06T04:29:36.228Z,68.63
2018-09-06T04:30:10.298Z,65.03
2018-09-06T04:30:44.274Z,63.90
2018-09-06T04:31:18.109Z,65.17
2018-09-06T04:31:52.160Z,68.60
2018-09-06T04:32:26.316Z,68.17
2018-09-06T04:33:00.719Z,69.20
2018-09-06T04:33:34.605Z,69.70
2018-09-06T04:34:08.504Z,66.57
2018-09-06T04:34:42.400Z,60.33
2018-09-06T04:35:16.394Z,66.87
2018-09-06T04:35:50.236Z,67.93
2018-09-06T04:36:24.089Z,62.80
2018-09-06T04:36:58.064Z,59.57
2018-09-06T04:37:32.041Z,60.10
2018-09-06T04:38:06.072Z,67.70
2018-09-06T04:38:40.177Z,59.27
2018-09-06T04:39:14.073Z,57.30
2018-09-06T04:39:48.022Z,59.63
2018-09-06T04:40:21.949Z,65.87
2018-09-06T04:40:55.826Z,59.43
2018-09-06T04:41:29.912Z,56.63
2018-09-06T04:42:03.931Z,62.20
2018-09-06T04:42:37.882Z,52.93
2018-09-06T04:43:11.797Z,54.73
2018-09-06T04:43:45.866Z,53.37
2018-09-06T04:44:19.657Z,55.77
2018-09-06T04:44:53.480Z,56.93
2018-09-06T04:45:27.322Z,56.77
2018-09-06T04:46:01.189Z,56.23
2018-09-06T04:46:35.612Z,51.93
2018-09-06T04:47:09.570Z,52.27
2018-09-06T04:47:43.401Z,48.67
2018-09-06T04:48:17.343Z,57.73
2018-09-06T04:48:51.121Z,64.67
2018-09-06T04:49:25.238Z,62.33
2018-09-06T04:49:59.292Z,56.70
2018-09-06T04:50:33.680Z,56.90
2018-09-06T04:51:07.842Z,55.93
2018-09-06T04:51:41.960Z,54.67
2018-09-06T04:52:15.742Z,51.17
2018-09-06T04:52:49.633Z,51.77
2018-09-06T04:53:23.741Z,50.13
2018-09-06T04:53:57.775Z,50.77
2018-09-06T04:54:31.788Z,50.73
2018-09-06T04:55:06.238Z,49.07
2018-09-06T04:55:40.210Z,48.97
2018-09-06T04:56:14.099Z,49.13
2018-09-06T04:56:47.885Z,52.40
2018-09-06T04:57:21.728Z,50.87
2018-09-06T04:57:55.656Z,48.67
2018-09-06T04:58:29.997Z,48.77
2018-09-06T04:59:04.250Z,49.40
2018-09-06T04:59:38.257Z,48.97
2018-09-06T05:00:12.244Z,50.10
2018-09-06T05:00:46.136Z,48.53
2018-09-06T05:01:19.897Z,49.90
2018-09-06T05:01:53.756Z,49.63
2018-09-06T05:02:27.547Z,49.50
2018-09-06T05:03:01.509Z,48.93
2018-09-06T05:03:35.416Z,48.60
2018-09-06T05:04:09.410Z,48.93
2018-09-06T05:04:43.511Z,52.40
2018-09-06T05:05:17.365Z,55.20
2018-09-06T05:05:51.207Z,52.20
2018-09-06T05:06:25.018Z,48.53
2018-09-06T05:06:59.619Z,49.23
2018-09-06T05:07:33.711Z,47.73
2018-09-06T05:08:07.645Z,51.33
2018-09-06T05:08:41.558Z,49.90
2018-09-06T05:09:15.941Z,51.30
2018-09-06T05:09:49.673Z,59.77
2018-09-06T05:10:23.500Z,63.37
2018-09-06T05:10:57.340Z,65.93
2018-09-06T05:11:31.192Z,52.97
2018-09-06T05:12:07.936Z,54.23
2018-09-06T05:12:43.626Z,55.97
2018-09-06T05:13:17.575Z,56.10
2018-09-06T05:13:51.428Z,56.40
2018-09-06T05:14:25.506Z,61.70
2018-09-06T05:14:59.451Z,66.33
2018-09-06T05:15:33.338Z,62.07
2018-09-06T05:16:07.198Z,63.93
2018-09-06T05:16:41.201Z,57.27
2018-09-06T05:17:14.980Z,59.37
2018-09-06T05:17:48.891Z,60.37
2018-09-06T05:18:22.621Z,54.47
2018-09-06T05:18:56.536Z,53.60
2018-09-06T05:19:30.321Z,54.70
2018-09-06T05:20:05.005Z,53.33
2018-09-06T05:20:39.203Z,54.17
2018-09-06T05:21:13.065Z,52.77
2018-09-06T05:21:47.016Z,52.43
2018-09-06T05:22:20.968Z,58.40
2018-09-06T05:22:54.928Z,58.40
2018-09-06T05:23:29.272Z,60.43
2018-09-06T05:24:03.191Z,59.27
2018-09-06T05:24:37.198Z,62.80
2018-09-06T05:25:11.238Z,68.03
2018-09-06T05:25:45.080Z,66.23
2018-09-06T05:26:19.037Z,61.20
2018-09-06T05:26:53.039Z,66.50
2018-09-06T05:27:26.769Z,57.83
2018-09-06T05:28:00.628Z,55.93
2018-09-06T05:28:34.720Z,56.87
2018-09-06T05:29:08.519Z,59.63
2018-09-06T05:29:42.329Z,66.03
2018-09-06T05:30:16.212Z,63.70
2018-09-06T05:30:50.330Z,56.87
2018-09-06T05:31:24.227Z,58.27
2018-09-06T05:31:58.078Z,55.47
2018-09-06T05:32:31.988Z,62.33
2018-09-06T05:33:05.925Z,56.53
2018-09-06T05:33:39.946Z,63.13
2018-09-06T05:34:14.195Z,65.83
2018-09-06T05:34:47.990Z,67.37
2018-09-06T05:35:22.232Z,68.63
2018-09-06T05:35:56.650Z,71.67
2018-09-06T05:36:30.425Z,71.10
2018-09-06T05:37:04.920Z,65.03
2018-09-06T05:37:39.021Z,65.53
2018-09-06T05:38:13.097Z,64.93
2018-09-06T05:38:47.052Z,69.10
2018-09-06T05:39:20.972Z,67.40
2018-09-06T05:39:54.922Z,60.83
2018-09-06T05:40:28.958Z,56.73
2018-09-06T05:41:02.831Z,56.90
2018-09-06T05:41:37.106Z,56.00
2018-09-06T05:42:11.025Z,54.93
2018-09-06T05:42:44.960Z,58.37
2018-09-06T05:43:18.888Z,54.60
2018-09-06T05:43:52.813Z,56.07
2018-09-06T05:44:26.552Z,55.93
2018-09-06T05:45:00.383Z,52.17
2018-09-06T05:45:34.426Z,54.20
2018-09-06T05:46:09.908Z,57.00
2018-09-06T05:46:43.832Z,54.93
2018-09-06T05:47:19.052Z,53.37
2018-09-06T05:47:57.948Z,54.53
2018-09-06T05:48:31.817Z,56.03
2018-09-06T05:49:05.952Z,57.33
2018-09-06T05:49:39.972Z,56.77
2018-09-06T05:50:14.548Z,58.13
2018-09-06T05:50:48.588Z,63.20
2018-09-06T05:51:22.859Z,55.13
2018-09-06T05:51:59.009Z,55.57
2018-09-06T05:52:34.532Z,57.87
2018-09-06T05:53:08.577Z,55.33
2018-09-06T05:53:42.617Z,56.10
2018-09-06T05:54:17.503Z,54.47
2018-09-06T05:54:51.258Z,52.77
2018-09-06T05:55:25.125Z,54.90
2018-09-06T05:55:59.388Z,57.30
2018-09-06T05:56:33.369Z,54.60
2018-09-06T05:57:14.008Z,53.00
2018-09-06T05:57:48.035Z,53.80
2018-09-06T05:58:22.096Z,53.60
2018-09-06T05:58:55.966Z,53.40
2018-09-06T05:59:30.024Z,51.67
2018-09-06T06:00:08.719Z,53.40
2018-09-06T06:00:44.806Z,52.20
2018-09-06T06:01:18.937Z,50.63
2018-09-06T06:01:52.988Z,52.73
2018-09-06T06:02:27.081Z,56.40
2018-09-06T06:03:03.311Z,49.57
2018-09-06T06:03:37.167Z,47.23
2018-09-06T06:04:11.125Z,53.63
2018-09-06T06:05:04.201Z,55.90
2018-09-06T06:05:45.437Z,51.17
2018-09-06T06:06:23.459Z,49.40
2018-09-06T06:07:02.670Z,49.87
2018-09-06T06:07:48.038Z,52.60
2018-09-06T06:08:33.750Z,49.33
2018-09-06T06:09:08.314Z,50.10
2018-09-06T06:09:42.291Z,51.03
2018-09-06T06:10:16.216Z,53.60
2018-09-06T06:10:50.211Z,50.47
2018-09-06T06:11:24.215Z,50.03
2018-09-06T06:11:58.992Z,51.73
2018-09-06T06:12:32.931Z,50.20
2018-09-06T06:13:06.689Z,48.93
2018-09-06T06:13:40.623Z,51.33
2018-09-06T06:14:14.805Z,48.73
2018-09-06T06:14:48.769Z,51.77
2018-09-06T06:15:22.802Z,52.10
2018-09-06T06:15:57.575Z,48.07
2018-09-06T06:16:31.437Z,55.63
2018-09-06T06:17:05.228Z,52.43
2018-09-06T06:17:39.242Z,54.60
2018-09-06T06:18:13.723Z,56.67
2018-09-06T06:18:47.913Z,51.70
2018-09-06T06:19:22.016Z,47.43
2018-09-06T06:19:56.217Z,49.23
2018-09-06T06:20:30.313Z,49.00
2018-09-06T06:21:04.304Z,53.73
2018-09-06T06:21:38.220Z,53.30
2018-09-06T06:22:12.522Z,50.10
2018-09-06T06:22:46.878Z,50.30
2018-09-06T06:23:20.805Z,48.40
2018-09-06T06:23:54.931Z,49.27
2018-09-06T06:24:28.912Z,49.60
2018-09-06T06:25:02.688Z,50.10
2018-09-06T06:25:36.377Z,56.87
2018-09-06T06:26:10.354Z,50.27
2018-09-06T06:26:44.200Z,47.40
2018-09-06T06:27:18.413Z,53.47
2018-09-06T06:27:52.505Z,52.93
2018-09-06T06:28:26.721Z,51.77
2018-09-06T06:29:00.670Z,49.83
2018-09-06T06:29:34.584Z,48.70
2018-09-06T06:30:08.463Z,46.87
2018-09-06T06:30:42.248Z,50.83
2018-09-06T06:31:16.360Z,48.53
2018-09-06T06:31:50.748Z,53.17
2018-09-06T06:32:24.832Z,53.53
2018-09-06T06:32:58.774Z,52.77
2018-09-06T06:33:32.841Z,52.27
2018-09-06T06:34:06.763Z,50.13
2018-09-06T06:34:40.743Z,49.90
2018-09-06T06:35:14.943Z,49.57
2018-09-06T06:35:48.963Z,50.53
2018-09-06T06:36:23.142Z,52.23
2018-09-06T06:37:00.319Z,55.67
2018-09-06T06:37:34.391Z,57.27
2018-09-06T06:38:08.138Z,57.33
2018-09-06T06:38:42.102Z,57.33
2018-09-06T06:39:16.457Z,53.93
2018-09-06T06:39:50.858Z,48.97
2018-09-06T06:40:24.917Z,48.60
2018-09-06T06:40:59.080Z,49.40
2018-09-06T06:41:32.931Z,49.20
2018-09-06T06:42:06.829Z,48.33
2018-09-06T06:42:40.628Z,46.20
2018-09-06T06:43:14.576Z,46.57
2018-09-06T06:43:48.748Z,49.30
2018-09-06T06:44:22.741Z,49.03
2018-09-06T06:44:57.311Z,46.27
2018-09-06T06:45:31.237Z,46.13
2018-09-06T06:46:05.176Z,47.03
2018-09-06T06:46:39.048Z,46.17
2018-09-06T06:47:12.939Z,48.70
2018-09-06T06:47:46.950Z,46.90
2018-09-06T06:48:21.180Z,48.73
2018-09-06T06:48:54.901Z,48.43
2018-09-06T06:49:28.840Z,53.43
2018-09-06T06:50:02.926Z,52.07
2018-09-06T06:50:37.077Z,47.20
2018-09-06T06:51:10.921Z,45.60
2018-09-06T06:51:44.868Z,44.57
2018-09-06T06:52:19.288Z,44.10
2018-09-06T06:52:53.313Z,44.00
2018-09-06T06:53:27.445Z,43.50
2018-09-06T06:54:02.401Z,45.53
2018-09-06T06:54:36.376Z,44.37
2018-09-06T06:55:10.588Z,45.67
2018-09-06T06:55:44.392Z,44.80
2018-09-06T06:56:18.678Z,46.10
2018-09-06T06:56:52.880Z,43.73
2018-09-06T06:57:27.390Z,44.20
2018-09-06T06:58:01.680Z,44.73
2018-09-06T06:58:36.470Z,48.13
2018-09-06T06:59:10.487Z,46.23
2018-09-06T06:59:44.489Z,45.60
2018-09-06T07:00:20.104Z,42.07
2018-09-06T07:00:54.062Z,43.60
2018-09-06T07:01:28.308Z,46.67
2018-09-06T07:02:02.189Z,46.57
2018-09-06T07:02:36.221Z,45.53
2018-09-06T07:03:11.599Z,47.20
2018-09-06T07:03:45.260Z,50.43
2018-09-06T07:04:19.197Z,51.07
2018-09-06T07:04:53.658Z,49.50
2018-09-06T07:05:27.785Z,45.97
2018-09-06T07:06:01.696Z,44.87
2018-09-06T07:06:35.502Z,44.90
2018-09-06T07:07:09.668Z,46.07
2018-09-06T07:07:43.735Z,53.73
2018-09-06T07:08:17.742Z,49.37
2018-09-06T07:08:51.945Z,47.30
2018-09-06T07:09:25.796Z,49.07
2018-09-06T07:10:00.157Z,51.03
2018-09-06T07:10:33.877Z,49.53
2018-09-06T07:11:07.720Z,51.13
2018-09-06T07:11:41.607Z,53.77
2018-09-06T07:12:15.491Z,51.70
2018-09-06T07:12:49.249Z,53.47
2018-09-06T07:13:23.363Z,50.93
2018-09-06T07:13:58.039Z,48.40
2018-09-06T07:14:32.205Z,45.20
2018-09-06T07:15:06.149Z,44.20
2018-09-06T07:15:40.013Z,45.00
2018-09-06T07:16:13.976Z,47.83
2018-09-06T07:16:47.762Z,47.27
2018-09-06T07:17:21.762Z,47.00
2018-09-06T07:17:55.907Z,45.63
2018-09-06T07:18:30.118Z,46.73
2018-09-06T07:19:06.430Z,46.87
2018-09-06T07:19:40.221Z,42.97
2018-09-06T07:20:14.135Z,46.00
2018-09-06T07:20:47.988Z,52.73
2018-09-06T07:21:21.899Z,48.30
2018-09-06T07:21:57.619Z,46.77